createdAt,value
2022-11-25T00:01:16.091Z,61.33
2022-11-25T00:03:44.913Z,60.74
2022-11-25T00:06:17.212Z,61.19
2022-11-25T00:08:46.245Z,60.49
2022-11-25T00:11:14.937Z,60.21
2022-11-25T00:13:43.771Z,60.33
2022-11-25T00:16:12.990Z,60.44
2022-11-25T00:18:41.310Z,61.19
2022-11-25T00:21:09.958Z,60.45
2022-11-25T00:23:39.680Z,60.02
2022-11-25T00:26:11.520Z,59.58
2022-11-25T00:28:40.563Z,59.77
2022-11-25T00:31:12.197Z,60.18
2022-11-25T00:33:40.961Z,60.25
2022-11-25T00:36:15.354Z,60.21
2022-11-25T00:38:45.288Z,59.91
2022-11-25T00:41:31.007Z,59.70
2022-11-25T00:44:16.806Z,59.73
2022-11-25T00:46:45.503Z,59.71
2022-11-25T00:49:13.327Z,60.16
2022-11-25T00:51:41.231Z,60.06
2022-11-25T00:54:11.198Z,60.20
2022-11-25T00:56:39.564Z,60.74
2022-11-25T00:59:07.598Z,61.05
2022-11-25T01:01:36.278Z,60.33
2022-11-25T01:04:05.223Z,60.50
2022-11-25T01:06:34.176Z,60.56
2022-11-25T01:09:02.776Z,60.76
2022-11-25T01:11:32.060Z,60.17
2022-11-25T01:14:01.678Z,60.39
2022-11-25T01:16:30.623Z,60.15
2022-11-25T01:18:59.266Z,60.22
2022-11-25T01:21:28.643Z,59.69
2022-11-25T01:23:56.463Z,60.04
2022-11-25T01:26:25.860Z,60.33
2022-11-25T01:28:57.237Z,60.08
2022-11-25T01:31:26.546Z,60.08
2022-11-25T01:33:56.237Z,60.38
2022-11-25T01:36:24.531Z,60.62
2022-11-25T01:38:55.009Z,60.81
2022-11-25T01:41:24.401Z,60.71
2022-11-25T01:44:08.114Z,60.63
2022-11-25T01:46:46.448Z,60.69
2022-11-25T01:49:16.338Z,60.28
2022-11-25T01:51:48.590Z,60.79
2022-11-25T01:54:19.440Z,60.48
2022-11-25T01:56:51.976Z,60.69
2022-11-25T01:59:21.275Z,61.03
2022-11-25T02:01:49.203Z,60.72
2022-11-25T02:04:18.665Z,60.73
2022-11-25T02:06:52.687Z,60.83
2022-11-25T02:09:22.787Z,60.57
2022-11-25T02:11:52.307Z,60.80
2022-11-25T02:14:22.229Z,61.85
2022-11-25T02:16:53.056Z,61.60
2022-11-25T02:19:24.431Z,62.75
2022-11-25T02:21:55.122Z,62.55
2022-11-25T02:24:28.559Z,62.39
2022-11-25T02:26:58.224Z,62.84
2022-11-25T02:29:26.612Z,62.26
2022-11-25T02:31:54.601Z,62.24
2022-11-25T02:34:22.570Z,61.98
2022-11-25T02:36:50.859Z,62.11
2022-11-25T02:39:20.369Z,61.73
2022-11-25T02:41:51.713Z,61.59
2022-11-25T02:44:21.600Z,61.72
2022-11-25T02:46:49.490Z,62.07
2022-11-25T02:49:19.866Z,61.55
2022-11-25T02:51:47.747Z,61.51
2022-11-25T02:54:16.748Z,61.09
2022-11-25T02:56:44.829Z,62.17
2022-11-25T02:59:13.118Z,62.29
2022-11-25T03:01:42.440Z,62.58
2022-11-25T03:04:11.589Z,62.79
2022-11-25T03:06:39.506Z,63.02
2022-11-25T03:09:08.372Z,62.44
2022-11-25T03:11:56.868Z,62.33
2022-11-25T03:14:24.755Z,61.93
2022-11-25T03:16:53.940Z,62.21
2022-11-25T03:19:21.927Z,61.77
2022-11-25T03:21:49.757Z,61.30
2022-11-25T03:24:17.628Z,60.75
2022-11-25T03:26:49.031Z,62.23
2022-11-25T03:29:16.935Z,62.33
2022-11-25T03:31:44.820Z,62.70
2022-11-25T03:34:14.759Z,62.40
2022-11-25T03:36:42.716Z,62.66
2022-11-25T03:39:10.930Z,63.91
2022-11-25T03:41:39.276Z,63.04
2022-11-25T03:44:07.331Z,62.35
2022-11-25T03:46:36.688Z,62.42
2022-11-25T03:49:07.341Z,62.31
2022-11-25T03:51:37.200Z,62.21
2022-11-25T03:54:05.863Z,62.37
2022-11-25T03:56:52.523Z,62.31
2022-11-25T03:59:20.907Z,62.54
2022-11-25T04:01:48.792Z,61.95
2022-11-25T04:04:16.850Z,62.03
2022-11-25T04:06:45.967Z,62.20
2022-11-25T04:09:13.932Z,62.07
2022-11-25T04:11:58.977Z,61.78
2022-11-25T04:14:31.431Z,60.82
2022-11-25T04:16:59.583Z,61.13
2022-11-25T04:19:27.491Z,61.54
2022-11-25T04:21:59.496Z,63.08
2022-11-25T04:24:29.192Z,61.98
2022-11-25T04:26:57.437Z,61.92
2022-11-25T04:29:25.564Z,61.55
2022-11-25T04:31:54.012Z,61.54
2022-11-25T04:34:21.946Z,61.71
2022-11-25T04:36:52.048Z,61.43
2022-11-25T04:39:21.889Z,61.61
2022-11-25T04:42:12.757Z,61.47
2022-11-25T04:44:41.046Z,61.25
2022-11-25T04:47:08.991Z,61.16
2022-11-25T04:49:37.491Z,61.31
2022-11-25T04:52:05.856Z,61.04
2022-11-25T04:54:35.331Z,61.76
2022-11-25T04:57:03.417Z,62.29
2022-11-25T04:59:43.159Z,64.26
2022-11-25T05:02:17.099Z,62.20
2022-11-25T05:04:56.602Z,61.77
2022-11-25T05:07:27.763Z,61.83
2022-11-25T05:09:59.198Z,62.13
2022-11-25T05:12:41.084Z,61.62
2022-11-25T05:15:13.254Z,62.13
2022-11-25T05:17:43.699Z,62.44
2022-11-25T05:20:12.781Z,62.33
2022-11-25T05:22:40.568Z,62.19
2022-11-25T05:25:16.598Z,62.27
2022-11-25T05:27:58.151Z,62.23
2022-11-25T05:30:26.401Z,62.49
2022-11-25T05:32:54.287Z,63.32
2022-11-25T05:35:22.263Z,62.99
2022-11-25T05:37:50.165Z,62.39
2022-11-25T05:40:19.821Z,62.42
2022-11-25T05:42:57.977Z,62.16
2022-11-25T05:45:25.852Z,62.55
2022-11-25T05:47:54.683Z,62.33
2022-11-25T05:50:25.695Z,62.78
2022-11-25T05:53:04.431Z,62.95
2022-11-25T05:55:35.259Z,63.37
2022-11-25T05:58:06.656Z,62.77
2022-11-25T06:00:36.124Z,62.76
2022-11-25T06:03:09.397Z,62.75
2022-11-25T06:05:38.281Z,62.91
2022-11-25T06:08:06.099Z,63.41
2022-11-25T06:10:35.421Z,62.59
2022-11-25T06:13:03.302Z,62.50
2022-11-25T06:15:31.178Z,61.99
2022-11-25T06:18:00.546Z,61.53
2022-11-25T06:20:30.763Z,63.08
2022-11-25T06:22:58.881Z,62.69
2022-11-25T06:25:32.854Z,63.71
2022-11-25T06:28:18.865Z,63.70
2022-11-25T06:30:50.287Z,65.99
2022-11-25T06:33:25.246Z,65.00
2022-11-25T06:35:53.447Z,65.70
2022-11-25T06:38:21.202Z,65.38
2022-11-25T06:40:49.077Z,65.91
2022-11-25T06:43:18.241Z,65.57
2022-11-25T06:45:46.065Z,67.56
2022-11-25T06:48:13.989Z,68.98
2022-11-25T06:50:41.837Z,69.13
2022-11-25T06:53:09.628Z,67.78
2022-11-25T06:55:37.457Z,67.93
2022-11-25T06:58:33.975Z,67.60
2022-11-25T07:00:54.710Z,69.52
2022-11-25T07:03:22.652Z,68.92
2022-11-25T07:05:50.542Z,68.74
2022-11-25T07:08:18.866Z,69.38
2022-11-25T07:10:46.714Z,69.59
2022-11-25T07:13:14.546Z,68.91
2022-11-25T07:15:42.612Z,70.45
2022-11-25T07:18:12.404Z,70.49
2022-11-25T07:20:40.644Z,71.92
2022-11-25T07:23:08.520Z,70.95
2022-11-25T07:25:36.423Z,70.94
2022-11-25T07:28:04.578Z,72.37
2022-11-25T07:33:21.800Z,71.72
2022-11-25T07:35:49.669Z,73.26
2022-11-25T07:38:17.633Z,72.58
2022-11-25T07:40:45.557Z,73.04
2022-11-25T07:43:13.489Z,73.01
2022-11-25T07:45:41.350Z,74.14
2022-11-25T07:48:11.501Z,73.41
2022-11-25T07:50:40.668Z,74.16
2022-11-25T07:53:08.511Z,74.81
2022-11-25T07:55:44.236Z,73.21
2022-11-25T07:58:16.939Z,71.58
2022-11-25T08:01:03.357Z,74.70
2022-11-25T08:03:33.266Z,72.35
2022-11-25T08:06:03.156Z,70.99
2022-11-25T08:08:33.963Z,70.79
2022-11-25T08:11:02.111Z,67.70
2022-11-25T08:13:49.991Z,67.71
2022-11-25T08:16:20.632Z,68.59
2022-11-25T08:18:48.790Z,67.56
2022-11-25T08:21:20.938Z,65.27
2022-11-25T08:23:58.025Z,64.73
2022-11-25T08:26:27.742Z,63.86
2022-11-25T08:28:56.154Z,64.11
2022-11-25T08:31:26.182Z,62.28
2022-11-25T08:33:54.918Z,60.74
2022-11-25T08:36:25.299Z,60.04
2022-11-25T08:38:55.066Z,60.33
2022-11-25T08:41:25.380Z,60.03
2022-11-25T08:43:55.842Z,60.19
2022-11-25T08:46:25.996Z,59.80
2022-11-25T08:48:54.352Z,58.36
2022-11-25T08:51:27.175Z,59.01
2022-11-25T08:53:55.642Z,58.02
2022-11-25T08:56:38.565Z,58.74
2022-11-25T08:59:09.683Z,58.29
2022-11-25T09:01:37.817Z,58.48
2022-11-25T09:04:06.104Z,57.93
2022-11-25T09:06:35.368Z,58.16
2022-11-25T09:09:06.025Z,58.46
2022-11-25T09:11:34.221Z,57.33
2022-11-25T09:14:02.157Z,56.91
2022-11-25T09:16:30.362Z,56.71
2022-11-25T09:18:59.996Z,56.33
2022-11-25T09:21:28.153Z,55.63
2022-11-25T09:23:57.370Z,54.87
2022-11-25T09:26:30.864Z,54.23
2022-11-25T09:28:58.983Z,54.26
2022-11-25T09:31:26.907Z,54.24
2022-11-25T09:33:54.803Z,54.18
2022-11-25T09:36:23.616Z,54.06
2022-11-25T09:39:12.506Z,53.79
2022-11-25T09:42:12.906Z,53.53
2022-11-25T09:45:06.940Z,53.22
2022-11-25T09:47:46.517Z,53.09
2022-11-25T09:50:21.087Z,53.59
2022-11-25T09:52:56.436Z,54.23
2022-11-25T09:55:25.575Z,53.91
2022-11-25T09:58:04.897Z,53.26
2022-11-25T10:00:39.019Z,53.50
2022-11-25T10:03:14.020Z,53.33
2022-11-25T10:05:44.338Z,52.83
2022-11-25T10:08:14.048Z,53.14
2022-11-25T10:10:45.241Z,53.29
2022-11-25T10:13:19.107Z,53.76
2022-11-25T10:15:49.838Z,53.81
2022-11-25T10:18:23.370Z,54.27
2022-11-25T10:20:52.040Z,53.67
2022-11-25T10:23:27.890Z,53.09
2022-11-25T10:25:58.735Z,51.96
2022-11-25T10:28:32.906Z,50.58
2022-11-25T10:31:05.784Z,50.42
2022-11-25T10:33:35.547Z,51.42
2022-11-25T10:36:10.749Z,51.25
2022-11-25T10:38:42.726Z,51.47
2022-11-25T10:41:39.401Z,52.18
2022-11-25T10:44:11.593Z,52.13
2022-11-25T10:47:12.347Z,51.65
2022-11-25T10:49:39.865Z,50.61
2022-11-25T10:52:11.423Z,50.05
2022-11-25T10:54:43.575Z,50.19
2022-11-25T10:57:19.035Z,49.93
2022-11-25T10:59:57.428Z,49.27
2022-11-25T11:02:29.968Z,48.51
2022-11-25T11:05:00.227Z,47.87
2022-11-25T11:07:35.099Z,47.78
2022-11-25T11:10:26.785Z,47.75
2022-11-25T11:12:59.782Z,47.83
2022-11-25T11:15:30.439Z,47.80
2022-11-25T11:18:00.479Z,47.65
2022-11-25T11:20:29.843Z,47.27
2022-11-25T11:23:05.518Z,46.94
2022-11-25T11:25:40.693Z,46.82
2022-11-25T11:28:26.725Z,46.03
2022-11-25T11:31:09.950Z,45.77
2022-11-25T11:33:40.187Z,46.65
2022-11-25T11:36:18.361Z,46.81
2022-11-25T11:38:54.830Z,47.00
2022-11-25T11:44:43.699Z,46.99
2022-11-25T11:47:27.790Z,44.68
2022-11-25T11:50:06.024Z,41.01
2022-11-25T11:52:44.178Z,38.07
2022-11-25T11:55:24.022Z,35.78
2022-11-25T11:58:05.652Z,35.33
2022-11-25T12:00:39.761Z,35.70
2022-11-25T12:03:14.958Z,37.43
2022-11-25T12:05:42.931Z,39.28
2022-11-25T12:08:15.126Z,40.35
2022-11-25T12:10:45.932Z,40.23
2022-11-25T12:13:21.084Z,41.23
2022-11-25T12:15:53.932Z,42.77
2022-11-25T12:18:50.299Z,44.06
2022-11-25T12:21:41.591Z,44.18
2022-11-25T12:24:17.758Z,43.85
2022-11-25T12:26:55.469Z,43.46
2022-11-25T12:29:40.629Z,43.12
2022-11-25T12:32:31.627Z,43.27
2022-11-25T12:35:30.744Z,43.46
2022-11-25T12:38:05.374Z,44.29
2022-11-25T12:40:36.730Z,44.71
2022-11-25T12:43:14.300Z,45.14
2022-11-25T12:45:42.793Z,45.21
2022-11-25T12:48:18.588Z,44.97
2022-11-25T12:50:57.831Z,44.54
2022-11-25T12:53:31.575Z,44.02
2022-11-25T12:56:07.363Z,44.13
2022-11-25T12:58:46.950Z,43.27
2022-11-25T13:01:31.273Z,42.24
2022-11-25T13:04:22.146Z,41.40
2022-11-25T13:07:28.303Z,41.85
2022-11-25T13:10:43.476Z,42.31
2022-11-25T13:13:21.201Z,42.69
2022-11-25T13:15:50.801Z,43.24
2022-11-25T13:18:20.503Z,43.53
2022-11-25T13:20:50.628Z,44.37
2022-11-25T13:23:28.381Z,45.11
2022-11-25T13:26:29.040Z,46.42
2022-11-25T13:28:57.514Z,46.67
2022-11-25T13:31:26.438Z,47.70
2022-11-25T13:34:09.477Z,48.03
2022-11-25T13:36:48.642Z,48.00
2022-11-25T13:39:19.044Z,48.25
2022-11-25T13:41:51.272Z,48.35
2022-11-25T13:44:25.302Z,48.50
2022-11-25T13:46:54.433Z,48.81
2022-11-25T13:49:28.973Z,49.44
2022-11-25T13:51:58.849Z,49.88
2022-11-25T13:54:35.427Z,50.41
2022-11-25T13:57:20.516Z,52.08
2022-11-25T14:00:00.061Z,52.29
2022-11-25T14:02:49.688Z,52.90
2022-11-25T14:05:46.657Z,53.23
2022-11-25T14:08:23.178Z,54.04
2022-11-25T14:11:01.053Z,53.93
2022-11-25T14:13:45.893Z,53.71
2022-11-25T14:16:27.229Z,54.25
2022-11-25T14:22:06.805Z,56.11
2022-11-25T14:24:38.951Z,56.76
2022-11-25T14:27:15.392Z,57.68
2022-11-25T14:29:50.383Z,58.51
2022-11-25T14:32:22.790Z,59.05
2022-11-25T14:34:55.750Z,59.24
2022-11-25T14:38:12.388Z,61.29
2022-11-25T14:40:43.566Z,62.03
2022-11-25T14:44:18.993Z,63.90
2022-11-25T14:51:02.771Z,65.38
2022-11-25T14:53:58.550Z,65.50
2022-11-25T14:56:30.281Z,64.56
2022-11-25T14:58:59.468Z,65.06
2022-11-25T15:01:28.993Z,65.53
2022-11-25T15:04:07.783Z,67.74
2022-11-25T15:06:39.494Z,67.65
2022-11-25T15:09:20.469Z,67.84
2022-11-25T15:11:48.941Z,68.39
2022-11-25T15:14:25.609Z,67.34
2022-11-25T15:16:53.914Z,67.12
2022-11-25T15:19:23.616Z,67.38
2022-11-25T15:24:53.316Z,67.22
2022-11-25T15:27:34.052Z,68.06
2022-11-25T15:30:02.013Z,67.97
2022-11-25T15:32:32.853Z,68.16
2022-11-25T15:35:01.773Z,68.17
2022-11-25T15:37:31.105Z,67.60
2022-11-25T15:40:35.858Z,66.96
2022-11-25T15:43:05.937Z,67.27
2022-11-25T15:45:38.623Z,68.08
2022-11-25T15:48:07.352Z,67.62
2022-11-25T15:50:35.311Z,67.60
2022-11-25T15:53:07.986Z,67.26
2022-11-25T15:55:38.272Z,66.93
2022-11-25T15:58:12.123Z,66.73
2022-11-25T16:00:41.843Z,66.90
2022-11-25T16:03:24.561Z,66.78
2022-11-25T16:05:56.227Z,66.73
2022-11-25T16:08:36.870Z,71.83
2022-11-25T16:11:18.385Z,67.52
2022-11-25T16:13:47.235Z,66.42
2022-11-25T16:16:41.387Z,66.83
2022-11-25T16:19:20.644Z,66.66
2022-11-25T16:21:53.193Z,66.97
2022-11-25T16:24:37.762Z,67.39
2022-11-25T16:27:07.049Z,67.07
2022-11-25T16:29:37.412Z,66.58
2022-11-25T16:32:15.069Z,66.80
2022-11-25T16:34:43.108Z,66.07
2022-11-25T16:37:11.100Z,65.71
2022-11-25T16:39:40.776Z,65.48
2022-11-25T16:42:09.417Z,64.65
2022-11-25T16:44:37.683Z,65.13
2022-11-25T16:47:05.666Z,64.32
2022-11-25T16:49:33.440Z,64.48
2022-11-25T16:52:01.647Z,65.14
2022-11-25T16:54:31.251Z,64.63
2022-11-25T16:57:00.812Z,66.45
2022-11-25T16:59:31.637Z,64.11
2022-11-25T17:02:00.594Z,63.58
2022-11-25T17:04:28.614Z,63.93
2022-11-25T17:07:30.407Z,63.70
2022-11-25T17:09:45.061Z,63.98
2022-11-25T17:12:16.441Z,64.51
2022-11-25T17:14:44.880Z,64.58
2022-11-25T17:17:17.568Z,64.99
2022-11-25T17:19:53.314Z,65.15
2022-11-25T17:22:22.775Z,65.31
2022-11-25T17:24:50.923Z,66.06
2022-11-25T17:27:29.975Z,66.40
2022-11-25T17:29:58.696Z,66.63
2022-11-25T17:32:26.909Z,67.16
2022-11-25T17:34:54.754Z,66.79
2022-11-25T17:37:38.060Z,67.68
2022-11-25T17:40:07.542Z,68.00
2022-11-25T17:42:37.000Z,68.61
2022-11-25T17:45:05.700Z,68.63
2022-11-25T17:47:36.544Z,68.60
2022-11-25T17:50:13.949Z,68.54
2022-11-25T17:52:41.781Z,67.94
2022-11-25T17:55:10.219Z,68.77
2022-11-25T17:57:40.262Z,68.67
2022-11-25T18:00:13.890Z,69.12
2022-11-25T18:02:58.632Z,69.38
2022-11-25T18:05:28.519Z,69.31
2022-11-25T18:07:56.740Z,70.18
2022-11-25T18:10:27.937Z,70.99
2022-11-25T18:12:57.856Z,71.24
2022-11-25T18:15:32.301Z,71.15
2022-11-25T18:18:03.306Z,70.98
2022-11-25T18:20:33.007Z,71.61
2022-11-25T18:23:01.466Z,71.90
2022-11-25T18:25:31.570Z,72.41
2022-11-25T18:28:01.588Z,72.20
2022-11-25T18:30:31.372Z,72.68
2022-11-25T18:33:01.194Z,72.97
2022-11-25T18:35:35.699Z,74.63
2022-11-25T18:38:04.547Z,71.72
2022-11-25T18:40:32.693Z,71.23
2022-11-25T18:43:03.769Z,72.24
2022-11-25T18:45:34.059Z,72.70
2022-11-25T18:48:02.369Z,73.22
2022-11-25T18:50:32.301Z,73.70
2022-11-25T18:53:00.230Z,73.74
2022-11-25T18:55:28.271Z,74.52
2022-11-25T18:57:56.450Z,73.99
2022-11-25T19:00:33.034Z,74.65
2022-11-25T19:03:07.131Z,75.53
2022-11-25T19:05:40.109Z,75.33
2022-11-25T19:08:12.281Z,75.95
2022-11-25T19:10:41.243Z,75.74
2022-11-25T19:13:14.819Z,75.24
2022-11-25T19:15:45.811Z,76.31
2022-11-25T19:18:16.935Z,80.15
2022-11-25T19:20:45.122Z,79.64
2022-11-25T19:23:18.446Z,81.47
2022-11-25T19:25:48.315Z,82.14
2022-11-25T19:28:16.560Z,83.31
2022-11-25T19:30:47.079Z,83.32
2022-11-25T19:33:26.370Z,83.22
2022-11-25T19:35:54.248Z,82.70
2022-11-25T19:38:25.961Z,84.75
2022-11-25T19:40:54.417Z,86.40
2022-11-25T19:43:23.133Z,85.68
2022-11-25T19:45:52.375Z,82.58
2022-11-25T19:48:22.405Z,82.81
2022-11-25T19:50:51.938Z,85.08
2022-11-25T19:53:22.098Z,86.76
2022-11-25T19:55:50.180Z,86.61
2022-11-25T19:58:18.328Z,92.36
2022-11-25T20:00:47.310Z,88.94
2022-11-25T20:03:22.052Z,86.78
2022-11-25T20:05:50.682Z,88.23
2022-11-25T20:08:20.385Z,84.42
2022-11-25T20:10:48.763Z,89.33
2022-11-25T20:13:16.594Z,91.24
2022-11-25T20:15:45.577Z,85.96
2022-11-25T20:18:18.300Z,93.67
2022-11-25T20:20:47.559Z,90.86
2022-11-25T20:23:17.615Z,95.45
2022-11-25T20:25:48.312Z,97.07
2022-11-25T20:28:18.285Z,96.56
2022-11-25T20:30:47.072Z,100.00
2022-11-25T20:33:21.196Z,100.00
2022-11-25T20:35:54.438Z,100.00
2022-11-25T20:38:25.126Z,100.00
2022-11-25T20:40:55.312Z,100.00
2022-11-25T20:43:28.414Z,100.00
2022-11-25T20:45:56.574Z,100.00
2022-11-25T20:48:26.568Z,100.00
2022-11-25T20:50:54.520Z,100.00
2022-11-25T20:53:23.620Z,100.00
2022-11-25T20:55:51.581Z,100.00
2022-11-25T20:58:24.336Z,100.00
2022-11-25T21:00:57.295Z,100.00
2022-11-25T21:03:27.271Z,100.00
2022-11-25T21:05:57.900Z,100.00
2022-11-25T21:08:29.160Z,100.00
2022-11-25T21:10:59.000Z,100.00
2022-11-25T21:13:28.598Z,100.00
2022-11-25T21:15:56.879Z,100.00
2022-11-25T21:18:25.466Z,100.00
2022-11-25T21:20:56.291Z,100.00
2022-11-25T21:23:26.687Z,100.00
2022-11-25T21:25:54.905Z,100.00
2022-11-25T21:28:25.836Z,100.00
2022-11-25T21:30:53.790Z,100.00
2022-11-25T21:33:21.590Z,100.00
2022-11-25T21:35:50.864Z,100.00
2022-11-25T21:38:23.165Z,100.00
2022-11-25T21:40:53.216Z,100.00
2022-11-25T21:43:22.541Z,100.00
2022-11-25T21:45:51.505Z,100.00
2022-11-25T21:48:21.340Z,100.00
2022-11-25T21:50:49.315Z,100.00
2022-11-25T21:53:17.211Z,100.00
2022-11-25T21:55:47.189Z,100.00
2022-11-25T21:58:18.289Z,100.00
2022-11-25T22:00:49.956Z,100.00
2022-11-25T22:03:19.503Z,100.00
2022-11-25T22:05:48.380Z,100.00
2022-11-25T22:08:16.403Z,100.00
2022-11-25T22:10:47.816Z,100.00
2022-11-25T22:13:17.220Z,100.00
2022-11-25T22:15:45.954Z,100.00
2022-11-25T22:18:19.149Z,100.00
2022-11-25T22:20:52.035Z,100.00
2022-11-25T22:23:22.107Z,100.00
2022-11-25T22:25:51.873Z,100.00
2022-11-25T22:28:21.246Z,100.00
2022-11-25T22:30:51.654Z,100.00
2022-11-25T22:33:20.106Z,100.00
2022-11-25T22:35:47.994Z,100.00
2022-11-25T22:38:17.160Z,100.00
2022-11-25T22:40:46.586Z,100.00
2022-11-25T22:43:18.771Z,100.00
2022-11-25T22:45:47.480Z,100.00
2022-11-25T22:48:17.588Z,100.00
2022-11-25T22:50:53.250Z,100.00
2022-11-25T22:53:22.038Z,100.00
2022-11-25T22:55:50.429Z,100.00
2022-11-25T22:58:19.849Z,100.00
2022-11-25T23:00:48.493Z,100.00
2022-11-25T23:03:22.169Z,100.00
2022-11-25T23:05:51.383Z,100.00
2022-11-25T23:08:20.770Z,100.00
2022-11-25T23:10:49.770Z,100.00
2022-11-25T23:13:20.586Z,100.00
2022-11-25T23:15:53.193Z,100.00
2022-11-25T23:18:27.172Z,100.00
2022-11-25T23:20:55.528Z,100.00
2022-11-25T23:23:28.732Z,100.00
2022-11-25T23:25:57.793Z,100.00
2022-11-25T23:28:29.744Z,100.00
2022-11-25T23:30:59.207Z,100.00
2022-11-25T23:33:31.573Z,100.00
2022-11-25T23:36:01.633Z,100.00
2022-11-25T23:38:36.954Z,100.00
2022-11-25T23:41:05.209Z,100.00
2022-11-25T23:43:34.493Z,100.00
2022-11-25T23:46:02.517Z,100.00
2022-11-25T23:48:31.367Z,100.00
2022-11-25T23:51:00.310Z,100.00
2022-11-25T23:53:33.147Z,100.00
2022-11-25T23:56:01.114Z,100.00
2022-11-25T23:58:29.271Z,100.00
